createdAt,value
2023-01-02T00:00:00.795Z,65.17
2023-01-02T00:01:05.423Z,65.17
2023-01-02T00:02:10.184Z,65.19
2023-01-02T00:03:13.416Z,65.13
2023-01-02T00:04:16.730Z,65.14
2023-01-02T00:05:19.829Z,65.18
2023-01-02T00:06:23.654Z,65.16
2023-01-02T00:07:26.810Z,65.22
2023-01-02T00:08:29.805Z,65.23
2023-01-02T00:09:33.646Z,65.19
2023-01-02T00:10:36.699Z,65.23
2023-01-02T00:11:39.868Z,65.18
2023-01-02T00:12:42.983Z,65.18
2023-01-02T00:13:46.069Z,65.19
2023-01-02T00:14:49.532Z,65.21
2023-01-02T00:15:52.488Z,65.20
2023-01-02T00:16:55.527Z,65.27
2023-01-02T00:17:58.464Z,65.25
2023-01-02T00:19:01.698Z,65.24
2023-01-02T00:20:05.887Z,65.20
2023-01-02T00:21:09.471Z,65.25
2023-01-02T00:22:12.571Z,65.27
2023-01-02T00:23:15.686Z,65.28
2023-01-02T00:24:18.840Z,65.31
2023-01-02T00:25:22.220Z,65.35
2023-01-02T00:26:25.293Z,65.27
2023-01-02T00:27:29.963Z,65.45
2023-01-02T00:28:33.789Z,65.41
2023-01-02T00:29:36.944Z,65.69
2023-01-02T00:30:40.182Z,65.67
2023-01-02T00:31:43.764Z,65.71
2023-01-02T00:32:46.773Z,65.78
2023-01-02T00:33:49.748Z,65.85
2023-01-02T00:34:53.847Z,65.77
2023-01-02T00:35:57.050Z,65.79
2023-01-02T00:37:00.111Z,65.71
2023-01-02T00:38:04.503Z,65.77
2023-01-02T00:39:07.456Z,65.70
2023-01-02T00:40:14.127Z,65.67
2023-01-02T00:41:17.513Z,65.62
2023-01-02T00:42:21.442Z,65.64
2023-01-02T00:43:24.835Z,65.70
2023-01-02T00:44:27.926Z,65.78
2023-01-02T00:45:30.945Z,65.68
2023-01-02T00:46:34.395Z,65.60
2023-01-02T00:47:37.562Z,65.58
2023-01-02T00:48:40.582Z,65.56
2023-01-02T00:49:43.644Z,65.50
2023-01-02T00:50:46.769Z,65.50
2023-01-02T00:51:50.241Z,65.53
2023-01-02T00:52:53.582Z,65.62
2023-01-02T00:53:56.764Z,65.65
2023-01-02T00:54:59.773Z,65.68
2023-01-02T00:56:02.861Z,65.59
2023-01-02T00:57:05.991Z,65.75
2023-01-02T00:58:08.900Z,65.83
2023-01-02T00:59:11.914Z,65.92
2023-01-02T01:00:21.671Z,65.90
2023-01-02T01:01:28.048Z,66.04
2023-01-02T01:02:31.867Z,65.98
2023-01-02T01:03:35.251Z,65.97
2023-01-02T01:04:38.350Z,66.00
2023-01-02T01:05:41.389Z,65.99
2023-01-02T01:06:44.447Z,66.05
2023-01-02T01:07:47.627Z,66.08
2023-01-02T01:08:50.660Z,66.10
2023-01-02T01:09:53.623Z,66.13
2023-01-02T01:10:56.664Z,66.12
2023-01-02T01:12:02.296Z,66.10
2023-01-02T01:13:08.647Z,66.07
2023-01-02T01:14:11.666Z,66.05
2023-01-02T01:15:18.407Z,66.05
2023-01-02T01:16:21.543Z,66.03
2023-01-02T01:17:24.545Z,66.09
2023-01-02T01:18:27.959Z,66.14
2023-01-02T01:19:32.274Z,66.15
2023-01-02T01:20:38.827Z,66.13
2023-01-02T01:21:41.961Z,66.12
2023-01-02T01:22:46.270Z,66.11
2023-01-02T01:23:54.925Z,66.18
2023-01-02T01:24:58.193Z,66.23
2023-01-02T01:26:10.310Z,66.17
2023-01-02T01:27:15.129Z,66.17
2023-01-02T01:28:18.212Z,66.14
2023-01-02T01:29:21.435Z,66.14
2023-01-02T01:30:24.438Z,66.20
2023-01-02T01:31:27.609Z,66.16
2023-01-02T01:32:30.697Z,66.09
2023-01-02T01:33:34.140Z,66.06
2023-01-02T01:34:37.383Z,66.05
2023-01-02T01:35:40.344Z,66.07
2023-01-02T01:36:44.339Z,66.05
2023-01-02T01:37:51.022Z,66.05
2023-01-02T01:38:54.153Z,66.05
2023-01-02T01:39:57.719Z,66.04
2023-01-02T01:41:01.752Z,66.11
2023-01-02T01:42:05.114Z,66.09
2023-01-02T01:43:14.956Z,66.12
2023-01-02T01:44:39.811Z,66.16
2023-01-02T01:45:52.516Z,66.27
2023-01-02T01:46:55.668Z,66.18
2023-01-02T01:48:00.990Z,66.11
2023-01-02T01:49:14.728Z,66.07
2023-01-02T01:50:25.928Z,66.08
2023-01-02T01:51:32.002Z,66.08
2023-01-02T01:52:40.178Z,66.02
2023-01-02T01:53:46.763Z,66.11
2023-01-02T01:54:59.565Z,66.05
2023-01-02T01:56:06.257Z,66.02
2023-01-02T01:57:33.546Z,65.99
2023-01-02T01:58:45.146Z,66.13
2023-01-02T01:59:49.834Z,66.06
2023-01-02T02:00:53.289Z,66.01
2023-01-02T02:01:58.093Z,66.02
2023-01-02T02:03:06.977Z,66.08
2023-01-02T02:04:11.581Z,66.01
2023-01-02T02:05:19.335Z,66.00
2023-01-02T02:06:22.374Z,66.00
2023-01-02T02:07:25.814Z,65.98
2023-01-02T02:08:34.443Z,66.00
2023-01-02T02:09:41.249Z,66.02
2023-01-02T02:10:47.344Z,66.04
2023-01-02T02:11:51.752Z,66.05
2023-01-02T02:12:54.677Z,66.06
2023-01-02T02:14:00.075Z,66.09
2023-01-02T02:15:04.085Z,66.15
2023-01-02T02:16:19.095Z,66.13
2023-01-02T02:17:55.468Z,66.19
2023-01-02T02:19:15.348Z,66.06
2023-01-02T02:20:58.608Z,66.24
2023-01-02T02:22:41.568Z,66.36
2023-01-02T02:23:59.528Z,66.50
2023-01-02T02:25:31.923Z,66.33
2023-01-02T02:26:48.050Z,66.24
2023-01-02T02:28:09.271Z,66.28
2023-01-02T02:29:49.418Z,66.25
2023-01-02T02:33:04.671Z,66.40
2023-01-02T02:34:25.280Z,66.31
2023-01-02T02:35:56.029Z,66.45
2023-01-02T02:37:13.641Z,66.46
2023-01-02T02:38:25.511Z,66.44
2023-01-02T02:39:43.869Z,66.42
2023-01-02T02:41:29.281Z,66.62
2023-01-02T02:43:15.683Z,66.68
2023-01-02T02:44:39.183Z,66.73
2023-01-02T02:46:20.460Z,66.95
2023-01-02T02:47:29.208Z,67.03
2023-01-02T02:48:41.665Z,66.95
2023-01-02T02:50:07.059Z,66.97
2023-01-02T02:51:24.909Z,67.14
2023-01-02T02:52:43.812Z,67.20
2023-01-02T02:54:03.537Z,67.22
2023-01-02T02:55:41.555Z,67.22
2023-01-02T02:56:47.372Z,67.48
2023-01-02T02:57:53.178Z,67.35
2023-01-02T02:58:56.558Z,67.69
2023-01-02T03:00:00.105Z,67.46
2023-01-02T03:01:08.691Z,67.56
2023-01-02T03:02:16.927Z,67.63
2023-01-02T03:03:22.970Z,67.95
2023-01-02T03:04:26.072Z,68.08
2023-01-02T03:05:37.428Z,68.08
2023-01-02T03:07:11.582Z,68.22
2023-01-02T03:08:33.003Z,68.18
2023-01-02T03:09:50.168Z,68.37
2023-01-02T03:11:00.013Z,68.52
2023-01-02T03:12:02.924Z,68.23
2023-01-02T03:13:08.828Z,68.17
2023-01-02T03:14:29.333Z,68.51
2023-01-02T03:15:58.599Z,68.29
2023-01-02T03:17:10.366Z,68.49
2023-01-02T03:18:25.457Z,68.75
2023-01-02T03:19:49.843Z,68.52
2023-01-02T03:21:02.808Z,68.51
2023-01-02T03:22:13.583Z,68.77
2023-01-02T03:23:22.027Z,68.87
2023-01-02T03:24:26.045Z,68.85
2023-01-02T03:25:31.973Z,68.91
2023-01-02T03:26:39.577Z,68.99
2023-01-02T03:27:45.538Z,69.09
2023-01-02T03:28:56.313Z,69.27
2023-01-02T03:30:07.958Z,68.99
2023-01-02T03:31:18.976Z,69.12
2023-01-02T03:32:27.930Z,69.43
2023-01-02T03:33:34.706Z,69.23
2023-01-02T03:34:40.863Z,69.06
2023-01-02T03:35:50.917Z,69.07
2023-01-02T03:37:01.076Z,69.38
2023-01-02T03:38:09.124Z,69.18
2023-01-02T03:39:18.874Z,69.21
2023-01-02T03:40:35.352Z,69.23
2023-01-02T03:41:43.480Z,69.18
2023-01-02T03:42:55.407Z,69.22
2023-01-02T03:44:01.380Z,69.15
2023-01-02T03:45:09.617Z,68.81
2023-01-02T03:46:19.297Z,68.79
2023-01-02T03:47:37.455Z,68.96
2023-01-02T03:48:56.470Z,68.98
2023-01-02T03:50:03.891Z,68.91
2023-01-02T03:51:07.792Z,69.04
2023-01-02T03:52:11.047Z,68.96
2023-01-02T03:53:14.266Z,68.88
2023-01-02T03:54:18.996Z,69.00
2023-01-02T03:55:25.736Z,69.09
2023-01-02T03:56:43.643Z,68.97
2023-01-02T03:58:00.512Z,69.12
2023-01-02T03:59:09.172Z,69.31
2023-01-02T04:00:16.489Z,69.32
2023-01-02T04:01:40.872Z,69.35
2023-01-02T04:03:06.261Z,69.33
2023-01-02T04:04:19.080Z,69.38
2023-01-02T04:05:30.379Z,69.37
2023-01-02T04:06:39.252Z,69.39
2023-01-02T04:07:58.516Z,69.34
2023-01-02T04:09:12.469Z,69.44
2023-01-02T04:10:16.313Z,69.41
2023-01-02T04:11:21.559Z,69.42
2023-01-02T04:12:26.789Z,69.33
2023-01-02T04:13:37.648Z,69.41
2023-01-02T04:14:46.339Z,69.35
2023-01-02T04:15:51.155Z,69.43
2023-01-02T04:16:56.805Z,69.48
2023-01-02T04:18:05.224Z,69.38
2023-01-02T04:19:24.377Z,69.36
2023-01-02T04:20:31.994Z,69.48
2023-01-02T04:21:39.352Z,69.48
2023-01-02T04:22:57.707Z,69.45
2023-01-02T04:24:10.171Z,69.52
2023-01-02T04:25:15.862Z,69.51
2023-01-02T04:26:24.955Z,69.37
2023-01-02T04:27:34.987Z,69.37
2023-01-02T04:28:38.664Z,69.23
2023-01-02T04:29:42.068Z,69.30
2023-01-02T04:30:51.238Z,69.23
2023-01-02T04:32:07.657Z,69.38
2023-01-02T04:33:12.272Z,69.27
2023-01-02T04:34:17.477Z,69.28
2023-01-02T04:35:23.424Z,69.25
2023-01-02T04:36:26.577Z,69.23
2023-01-02T04:37:35.881Z,69.26
2023-01-02T04:38:39.401Z,69.18
2023-01-02T04:39:42.677Z,69.18
2023-01-02T04:40:45.889Z,69.21
2023-01-02T04:41:48.969Z,69.20
2023-01-02T04:42:52.230Z,69.26
2023-01-02T04:43:59.053Z,69.26
2023-01-02T04:45:02.328Z,69.34
2023-01-02T04:46:05.646Z,69.32
2023-01-02T04:47:09.594Z,69.28
2023-01-02T04:48:12.575Z,69.30
2023-01-02T04:49:15.676Z,69.25
2023-01-02T04:50:18.998Z,69.22
2023-01-02T04:51:23.073Z,69.24
2023-01-02T04:52:26.083Z,69.23
2023-01-02T04:53:29.098Z,69.20
2023-01-02T04:54:32.068Z,69.27
2023-01-02T04:55:35.192Z,69.25
2023-01-02T04:56:38.394Z,69.22
2023-01-02T04:57:41.465Z,69.26
2023-01-02T04:58:45.943Z,69.28
2023-01-02T04:59:48.985Z,69.27
2023-01-02T05:00:52.118Z,69.26
2023-01-02T05:01:55.512Z,69.24
2023-01-02T05:02:58.774Z,69.30
2023-01-02T05:04:02.024Z,69.28
2023-01-02T05:05:06.768Z,69.30
2023-01-02T05:06:10.359Z,69.34
2023-01-02T05:07:13.493Z,69.33
2023-01-02T05:08:16.828Z,69.32
2023-01-02T05:09:19.899Z,69.33
2023-01-02T05:10:22.844Z,69.38
2023-01-02T05:11:26.109Z,69.45
2023-01-02T05:12:29.173Z,69.40
2023-01-02T05:13:32.149Z,69.42
2023-01-02T05:14:35.277Z,69.48
2023-01-02T05:15:38.366Z,69.58
2023-01-02T05:16:41.674Z,69.55
2023-01-02T05:17:44.815Z,69.55
2023-01-02T05:18:47.841Z,69.53
2023-01-02T05:19:50.795Z,69.69
2023-01-02T05:20:53.845Z,69.72
2023-01-02T05:22:15.969Z,69.94
2023-01-02T05:23:37.593Z,70.23
2023-01-02T05:24:40.622Z,70.45
2023-01-02T05:25:43.580Z,70.32
2023-01-02T05:26:46.556Z,70.62
2023-01-02T05:27:53.343Z,70.83
2023-01-02T05:28:56.753Z,70.99
2023-01-02T05:29:59.705Z,70.96
2023-01-02T05:31:02.738Z,71.13
2023-01-02T05:32:05.904Z,71.29
2023-01-02T05:33:09.024Z,71.34
2023-01-02T05:34:16.110Z,71.46
2023-01-02T05:35:19.103Z,71.46
2023-01-02T05:36:24.051Z,71.60
2023-01-02T05:37:27.274Z,71.84
2023-01-02T05:38:32.279Z,71.87
2023-01-02T05:39:35.231Z,71.92
2023-01-02T05:40:38.171Z,72.37
2023-01-02T05:41:41.929Z,72.34
2023-01-02T05:42:45.032Z,72.54
2023-01-02T05:43:48.790Z,72.27
2023-01-02T05:44:52.408Z,72.30
2023-01-02T05:45:55.320Z,72.44
2023-01-02T05:46:58.352Z,72.43
2023-01-02T05:48:01.627Z,72.62
2023-01-02T05:49:06.265Z,72.59
2023-01-02T05:50:09.664Z,72.81
2023-01-02T05:51:16.484Z,72.77
2023-01-02T05:52:19.484Z,72.77
2023-01-02T05:53:23.144Z,72.69
2023-01-02T05:54:26.222Z,72.65
2023-01-02T05:55:29.243Z,72.94
2023-01-02T05:56:32.316Z,73.05
2023-01-02T05:57:35.599Z,73.02
2023-01-02T05:58:40.409Z,73.39
2023-01-02T05:59:43.596Z,73.30
2023-01-02T06:00:46.639Z,73.38
2023-01-02T06:01:49.942Z,73.44
2023-01-02T06:02:53.327Z,73.44
2023-01-02T06:03:58.547Z,73.34
2023-01-02T06:05:01.636Z,73.57
2023-01-02T06:06:10.439Z,73.44
2023-01-02T06:07:13.505Z,73.69
2023-01-02T06:08:17.098Z,73.49
2023-01-02T06:09:20.437Z,73.48
2023-01-02T06:10:23.596Z,73.62
2023-01-02T06:11:27.672Z,73.76
2023-01-02T06:12:30.662Z,73.87
2023-01-02T06:13:35.794Z,73.94
2023-01-02T06:14:38.878Z,73.95
2023-01-02T06:15:42.133Z,74.04
2023-01-02T06:16:45.253Z,73.90
2023-01-02T06:17:48.329Z,73.89
2023-01-02T06:18:52.128Z,73.96
2023-01-02T06:19:55.471Z,74.20
2023-01-02T06:21:02.901Z,74.32
2023-01-02T06:22:05.997Z,74.45
2023-01-02T06:23:09.021Z,74.37
2023-01-02T06:24:12.316Z,74.46
2023-01-02T06:25:15.689Z,74.52
2023-01-02T06:26:20.962Z,74.40
2023-01-02T06:27:24.022Z,74.55
2023-01-02T06:28:28.504Z,74.67
2023-01-02T06:29:31.821Z,74.47
2023-01-02T06:30:35.027Z,74.78
2023-01-02T06:31:39.991Z,74.92
2023-01-02T06:32:43.598Z,75.29
2023-01-02T06:33:46.848Z,75.55
2023-01-02T06:34:50.041Z,75.38
2023-01-02T06:36:01.092Z,75.40
2023-01-02T06:37:09.522Z,75.60
2023-01-02T06:38:13.211Z,75.97
2023-01-02T06:39:16.317Z,75.77
2023-01-02T06:40:19.955Z,76.00
2023-01-02T06:41:23.359Z,75.81
2023-01-02T06:42:26.606Z,75.77
2023-01-02T06:43:31.584Z,76.00
2023-01-02T06:44:34.878Z,75.73
2023-01-02T06:45:37.807Z,76.18
2023-01-02T06:46:40.891Z,76.03
2023-01-02T06:47:44.087Z,75.85
2023-01-02T06:48:47.915Z,75.85
2023-01-02T06:49:51.016Z,76.25
2023-01-02T06:50:54.770Z,76.49
2023-01-02T06:51:57.798Z,76.51
2023-01-02T06:53:00.959Z,76.88
2023-01-02T06:54:04.091Z,76.91
2023-01-02T06:55:07.568Z,77.14
2023-01-02T06:56:11.842Z,77.07
2023-01-02T06:57:16.025Z,77.17
2023-01-02T06:58:20.521Z,77.59
2023-01-02T06:59:23.959Z,77.23
2023-01-02T07:00:28.399Z,77.57
2023-01-02T07:01:31.492Z,77.69
2023-01-02T07:02:34.612Z,77.80
2023-01-02T07:03:38.195Z,78.05
2023-01-02T07:04:41.793Z,78.28
2023-01-02T07:05:45.458Z,78.00
2023-01-02T07:06:48.558Z,78.46
2023-01-02T07:07:51.533Z,78.27
2023-01-02T07:08:54.682Z,78.45
2023-01-02T07:09:57.771Z,78.60
2023-01-02T07:11:09.027Z,78.23
2023-01-02T07:12:14.623Z,78.61
2023-01-02T07:13:17.628Z,78.96
2023-01-02T07:14:21.115Z,79.25
2023-01-02T07:15:24.243Z,79.21
2023-01-02T07:16:27.510Z,79.29
2023-01-02T07:17:31.807Z,79.48
2023-01-02T07:18:35.984Z,79.60
2023-01-02T07:19:39.112Z,79.59
2023-01-02T07:20:42.084Z,79.45
2023-01-02T07:21:45.107Z,79.82
2023-01-02T07:22:52.552Z,79.90
2023-01-02T07:23:55.818Z,79.40
2023-01-02T07:24:59.167Z,79.70
2023-01-02T07:26:04.074Z,79.78
2023-01-02T07:27:07.229Z,80.12
2023-01-02T07:28:10.245Z,79.73
2023-01-02T07:29:13.371Z,80.38
2023-01-02T07:30:16.770Z,79.82
2023-01-02T07:31:21.540Z,80.26
2023-01-02T07:32:27.496Z,80.08
2023-01-02T07:33:32.233Z,79.69
2023-01-02T07:34:35.332Z,80.38
2023-01-02T07:35:38.613Z,79.99
2023-01-02T07:36:41.712Z,80.52
2023-01-02T07:37:44.906Z,80.33
2023-01-02T07:38:55.335Z,79.88
2023-01-02T07:39:58.730Z,80.46
2023-01-02T07:41:01.856Z,80.61
2023-01-02T07:42:05.157Z,80.19
2023-01-02T07:43:08.155Z,80.25
2023-01-02T07:44:14.041Z,80.41
2023-01-02T07:45:17.158Z,80.71
2023-01-02T07:46:20.520Z,80.90
2023-01-02T07:47:24.510Z,80.52
2023-01-02T07:48:29.428Z,80.92
2023-01-02T07:49:32.468Z,80.86
2023-01-02T07:50:35.565Z,80.76
2023-01-02T07:51:38.741Z,80.96
2023-01-02T07:52:44.757Z,80.90
2023-01-02T07:53:48.036Z,80.88
2023-01-02T07:54:51.101Z,80.52
2023-01-02T07:55:55.536Z,80.59
2023-01-02T07:56:58.725Z,80.67
2023-01-02T07:58:01.989Z,80.58
2023-01-02T07:59:05.327Z,80.44
2023-01-02T08:00:09.107Z,80.57
2023-01-02T08:01:15.578Z,80.63
2023-01-02T08:02:19.088Z,80.63
2023-01-02T08:03:23.103Z,80.46
2023-01-02T08:04:26.338Z,80.46
2023-01-02T08:05:29.407Z,80.41
2023-01-02T08:06:33.749Z,80.48
2023-01-02T08:07:44.447Z,80.38
2023-01-02T08:08:48.077Z,80.13
2023-01-02T08:09:51.242Z,80.11
2023-01-02T08:10:54.290Z,80.02
2023-01-02T08:12:04.778Z,80.38
2023-01-02T08:13:08.299Z,80.38
2023-01-02T08:14:11.254Z,80.36
2023-01-02T08:15:14.265Z,80.36
2023-01-02T08:16:21.744Z,80.42
2023-01-02T08:17:24.893Z,80.17
2023-01-02T08:18:28.151Z,80.26
2023-01-02T08:19:32.256Z,80.45
2023-01-02T08:20:35.586Z,80.45
2023-01-02T08:21:38.597Z,80.46
2023-01-02T08:22:41.891Z,80.43
2023-01-02T08:23:45.290Z,80.29
2023-01-02T08:24:48.715Z,80.51
2023-01-02T08:25:57.335Z,80.52
2023-01-02T08:27:00.761Z,80.42
2023-01-02T08:28:04.029Z,80.47
2023-01-02T08:29:09.239Z,80.58
2023-01-02T08:30:12.566Z,80.41
2023-01-02T08:31:18.836Z,80.44
2023-01-02T08:32:21.933Z,80.58
2023-01-02T08:33:24.937Z,80.55
2023-01-02T08:34:28.058Z,80.44
2023-01-02T08:35:38.404Z,80.38
2023-01-02T08:36:42.605Z,80.66
2023-01-02T08:37:50.443Z,80.71
2023-01-02T08:38:54.617Z,80.65
2023-01-02T08:40:00.608Z,80.74
2023-01-02T08:41:05.769Z,80.53
2023-01-02T08:42:09.070Z,80.55
2023-01-02T08:43:13.470Z,80.64
2023-01-02T08:44:16.728Z,80.59
2023-01-02T08:45:19.844Z,80.60
2023-01-02T08:46:22.847Z,80.73
2023-01-02T08:47:25.932Z,80.74
2023-01-02T08:48:28.923Z,80.80
2023-01-02T08:49:32.392Z,80.85
2023-01-02T08:50:35.612Z,80.71
2023-01-02T08:51:38.631Z,80.60
2023-01-02T08:52:41.692Z,80.81
2023-01-02T08:53:44.652Z,80.89
2023-01-02T08:54:47.948Z,81.08
2023-01-02T08:55:51.104Z,81.02
2023-01-02T08:56:54.198Z,80.90
2023-01-02T08:57:57.332Z,80.93
2023-01-02T08:59:06.533Z,81.10
2023-01-02T09:00:12.411Z,81.08
2023-01-02T09:01:15.639Z,80.89
2023-01-02T09:02:18.953Z,80.90
2023-01-02T09:03:22.483Z,81.01
2023-01-02T09:04:25.522Z,80.94
2023-01-02T09:05:31.117Z,80.95
2023-01-02T09:06:36.127Z,80.99
2023-01-02T09:07:39.206Z,80.74
2023-01-02T09:08:42.234Z,80.77
2023-01-02T09:09:45.301Z,80.72
2023-01-02T09:10:51.529Z,80.85
2023-01-02T09:11:54.811Z,80.91
2023-01-02T09:12:59.201Z,80.90
2023-01-02T09:14:04.579Z,80.84
2023-01-02T09:15:09.385Z,80.81
2023-01-02T09:16:12.751Z,80.70
2023-01-02T09:17:16.285Z,80.57
2023-01-02T09:18:22.991Z,80.59
2023-01-02T09:19:29.740Z,80.70
2023-01-02T09:20:32.764Z,80.58
2023-01-02T09:21:36.068Z,80.68
2023-01-02T09:22:40.685Z,80.61
2023-01-02T09:23:43.887Z,80.41
2023-01-02T09:24:48.033Z,80.38
2023-01-02T09:25:51.446Z,80.28
2023-01-02T09:27:18.377Z,80.35
2023-01-02T09:29:03.557Z,80.48
2023-01-02T09:31:48.974Z,80.36
2023-01-02T09:32:52.501Z,80.21
2023-01-02T09:34:02.929Z,80.31
2023-01-02T09:35:06.571Z,80.27
2023-01-02T09:36:12.603Z,80.22
2023-01-02T09:37:17.567Z,80.16
2023-01-02T09:38:20.788Z,80.10
2023-01-02T09:39:30.303Z,79.91
2023-01-02T09:40:38.974Z,80.01
2023-01-02T09:41:47.143Z,80.01
2023-01-02T09:42:53.644Z,79.97
2023-01-02T09:44:01.014Z,79.95
2023-01-02T09:45:09.295Z,79.92
2023-01-02T09:46:51.162Z,79.92
2023-01-02T09:47:58.443Z,79.92
2023-01-02T09:49:02.848Z,79.93
2023-01-02T09:50:25.215Z,79.83
2023-01-02T09:51:28.739Z,79.91
2023-01-02T09:52:45.108Z,79.78
2023-01-02T09:53:48.357Z,79.76
2023-01-02T09:54:53.134Z,79.69
2023-01-02T09:56:17.734Z,79.65
2023-01-02T09:57:29.852Z,79.77
2023-01-02T09:58:38.723Z,79.67
2023-01-02T10:00:10.951Z,79.58
2023-01-02T10:01:26.938Z,79.69
2023-01-02T10:02:54.657Z,79.51
2023-01-02T10:04:19.825Z,79.33
2023-01-02T10:06:01.199Z,79.23
2023-01-02T10:07:23.251Z,79.23
2023-01-02T10:08:59.433Z,79.06
2023-01-02T10:10:46.767Z,78.95
2023-01-02T10:12:17.957Z,78.91
2023-01-02T10:14:08.916Z,78.77
2023-01-02T10:15:05.616Z,78.67
2023-01-02T10:16:17.617Z,78.55
2023-01-02T10:17:22.164Z,78.40
2023-01-02T10:18:41.470Z,78.37
2023-01-02T10:20:03.533Z,78.32
2023-01-02T10:21:21.134Z,78.33
2023-01-02T10:22:42.258Z,78.39
2023-01-02T10:23:55.074Z,78.14
2023-01-02T10:25:08.461Z,77.98
2023-01-02T10:26:28.285Z,77.90
2023-01-02T10:27:38.307Z,77.85
2023-01-02T10:28:46.988Z,77.76
2023-01-02T10:30:17.173Z,77.74
2023-01-02T10:31:48.638Z,77.60
2023-01-02T10:33:19.052Z,77.49
2023-01-02T10:34:26.574Z,77.29
2023-01-02T10:35:39.242Z,77.22
2023-01-02T10:36:43.955Z,77.08
2023-01-02T10:37:47.035Z,77.06
2023-01-02T10:38:50.997Z,76.78
2023-01-02T10:39:54.180Z,76.68
2023-01-02T10:40:57.395Z,76.59
2023-01-02T10:42:00.786Z,76.44
2023-01-02T10:43:04.560Z,76.25
2023-01-02T10:44:19.954Z,75.95
2023-01-02T10:45:24.175Z,75.87
2023-01-02T10:46:39.005Z,75.60
2023-01-02T10:47:42.073Z,75.59
2023-01-02T10:48:51.833Z,75.18
2023-01-02T10:49:57.490Z,75.05
2023-01-02T10:51:11.084Z,74.93
2023-01-02T10:52:41.728Z,74.77
2023-01-02T10:54:04.606Z,74.72
2023-01-02T10:55:08.430Z,74.54
2023-01-02T10:56:20.569Z,74.41
2023-01-02T10:57:46.014Z,74.13
2023-01-02T10:58:53.284Z,73.87
2023-01-02T11:00:00.054Z,74.00
2023-01-02T11:01:07.007Z,73.99
2023-01-02T11:02:30.399Z,74.07
2023-01-02T11:03:34.437Z,74.15
2023-01-02T11:04:44.029Z,74.06
2023-01-02T11:05:50.899Z,73.62
2023-01-02T11:07:00.682Z,73.41
2023-01-02T11:08:13.673Z,73.82
2023-01-02T11:09:29.542Z,74.00
2023-01-02T11:10:37.408Z,73.77
2023-01-02T11:11:52.863Z,73.69
2023-01-02T11:12:56.453Z,73.41
2023-01-02T11:14:08.544Z,73.27
2023-01-02T11:15:13.720Z,73.44
2023-01-02T11:16:18.948Z,73.51
2023-01-02T11:17:24.840Z,73.40
2023-01-02T11:18:33.586Z,73.02
2023-01-02T11:19:42.695Z,73.15
2023-01-02T11:20:52.232Z,72.57
2023-01-02T11:21:56.632Z,72.59
2023-01-02T11:23:03.142Z,72.83
2023-01-02T11:24:14.458Z,72.22
2023-01-02T11:25:24.597Z,72.65
2023-01-02T11:26:30.687Z,72.61
2023-01-02T11:27:37.112Z,72.53
2023-01-02T11:28:41.476Z,72.38
2023-01-02T11:29:47.990Z,71.51
2023-01-02T11:30:54.456Z,71.34
2023-01-02T11:32:01.791Z,71.59
2023-01-02T11:33:14.086Z,71.52
2023-01-02T11:34:24.572Z,71.53
2023-01-02T11:35:38.882Z,70.91
2023-01-02T11:36:48.366Z,70.88
2023-01-02T11:37:52.845Z,70.71
2023-01-02T11:38:59.420Z,70.52
2023-01-02T11:40:07.031Z,70.89
2023-01-02T11:41:46.037Z,70.81
2023-01-02T11:43:11.531Z,70.60
2023-01-02T11:44:23.510Z,70.60
2023-01-02T11:45:27.312Z,70.35
2023-01-02T11:46:38.253Z,70.59
2023-01-02T11:47:56.312Z,70.17
2023-01-02T11:49:18.209Z,70.16
2023-01-02T11:50:26.330Z,70.06
2023-01-02T11:51:33.354Z,70.21
2023-01-02T11:53:02.087Z,70.27
2023-01-02T11:54:14.714Z,69.85
2023-01-02T11:55:43.831Z,70.16
2023-01-02T11:56:48.096Z,69.72
2023-01-02T11:58:06.092Z,69.97
2023-01-02T11:59:31.131Z,69.92
2023-01-02T12:00:38.863Z,70.04
2023-01-02T12:02:20.902Z,69.42
2023-01-02T12:03:27.226Z,69.69
2023-01-02T12:04:33.670Z,69.79
2023-01-02T12:06:01.555Z,69.60
2023-01-02T12:07:23.416Z,69.27
2023-01-02T12:09:04.038Z,69.38
2023-01-02T12:10:20.771Z,69.28
2023-01-02T12:12:13.572Z,69.28
2023-01-02T12:13:31.649Z,68.44
2023-01-02T12:14:54.922Z,67.78
2023-01-02T12:16:20.666Z,68.14
2023-01-02T12:17:42.129Z,67.88
2023-01-02T12:18:52.317Z,67.82
2023-01-02T12:20:06.474Z,67.26
2023-01-02T12:21:24.496Z,67.64
2023-01-02T12:22:49.578Z,67.79
2023-01-02T12:23:58.819Z,67.75
2023-01-02T12:25:37.286Z,67.82
2023-01-02T12:26:46.619Z,67.33
2023-01-02T12:28:05.187Z,67.57
2023-01-02T12:29:48.689Z,67.20
2023-01-02T12:31:13.684Z,67.19
2023-01-02T12:32:39.380Z,67.15
2023-01-02T12:33:48.085Z,66.96
2023-01-02T12:35:13.121Z,66.58
2023-01-02T12:36:42.831Z,66.34
2023-01-02T12:37:54.329Z,66.20
2023-01-02T12:39:06.268Z,66.60
2023-01-02T12:40:43.894Z,66.00
2023-01-02T12:42:08.101Z,66.01
2023-01-02T12:43:11.142Z,66.43
2023-01-02T12:44:55.729Z,66.35
2023-01-02T12:46:26.969Z,66.35
2023-01-02T12:47:51.088Z,66.26
2023-01-02T12:49:13.363Z,66.09
2023-01-02T12:50:38.295Z,65.77
2023-01-02T12:51:57.209Z,65.88
2023-01-02T12:53:09.691Z,66.14
2023-01-02T12:54:51.030Z,65.49
2023-01-02T12:56:07.421Z,65.80
2023-01-02T12:57:32.088Z,65.20
2023-01-02T12:59:29.711Z,65.30
2023-01-02T13:01:00.682Z,65.18
2023-01-02T13:02:28.882Z,65.11
2023-01-02T13:03:53.240Z,65.16
2023-01-02T13:05:02.260Z,65.18
2023-01-02T13:06:45.437Z,65.16
2023-01-02T13:07:48.125Z,64.89
2023-01-02T13:09:03.345Z,65.15
2023-01-02T13:10:07.529Z,65.19
2023-01-02T13:11:11.477Z,64.72
2023-01-02T13:12:21.925Z,64.94
2023-01-02T13:13:27.368Z,64.58
2023-01-02T13:14:36.968Z,64.81
2023-01-02T13:15:44.232Z,64.90
2023-01-02T13:16:58.001Z,64.89
2023-01-02T13:18:10.708Z,64.55
2023-01-02T13:19:34.020Z,64.74
2023-01-02T13:20:44.111Z,64.57
2023-01-02T13:21:54.798Z,64.68
2023-01-02T13:23:18.469Z,64.48
2023-01-02T13:24:26.105Z,64.47
2023-01-02T13:25:31.430Z,63.83
2023-01-02T13:26:34.775Z,64.13
2023-01-02T13:27:38.247Z,64.36
2023-01-02T13:28:43.223Z,63.93
2023-01-02T13:29:46.298Z,63.68
2023-01-02T13:31:00.923Z,63.89
2023-01-02T13:32:15.247Z,63.46
2023-01-02T13:33:21.882Z,63.77
2023-01-02T13:34:33.074Z,64.08
2023-01-02T13:35:38.666Z,64.16
2023-01-02T13:36:47.017Z,64.13
2023-01-02T13:37:53.488Z,64.21
2023-01-02T13:39:00.585Z,64.22
2023-01-02T13:40:04.595Z,63.80
2023-01-02T13:41:07.791Z,63.85
2023-01-02T13:42:40.426Z,64.09
2023-01-02T13:43:48.804Z,63.73
2023-01-02T13:44:56.758Z,63.52
2023-01-02T13:46:01.603Z,63.78
2023-01-02T13:47:25.832Z,63.78
2023-01-02T13:48:35.365Z,64.09
2023-01-02T13:49:38.584Z,64.19
2023-01-02T13:50:41.955Z,64.16
2023-01-02T13:51:46.011Z,64.19
2023-01-02T13:53:27.397Z,63.93
2023-01-02T13:54:37.478Z,64.20
2023-01-02T13:55:40.444Z,64.24
2023-01-02T13:57:17.836Z,64.34
2023-01-02T13:58:25.484Z,64.12
2023-01-02T13:59:42.573Z,64.26
2023-01-02T14:00:57.187Z,64.29
2023-01-02T14:02:00.129Z,64.41
2023-01-02T14:03:22.915Z,64.40
2023-01-02T14:04:30.050Z,64.14
2023-01-02T14:05:58.510Z,64.21
2023-01-02T14:07:27.178Z,64.35
2023-01-02T14:09:00.608Z,64.27
2023-01-02T14:10:09.794Z,64.24
2023-01-02T14:11:28.523Z,64.27
2023-01-02T14:12:42.790Z,64.20
2023-01-02T14:13:51.643Z,64.15
2023-01-02T14:14:57.012Z,64.39
2023-01-02T14:16:13.036Z,64.36
2023-01-02T14:17:45.121Z,64.33
2023-01-02T14:19:05.708Z,64.52
2023-01-02T14:20:22.434Z,64.56
2023-01-02T14:21:33.476Z,64.59
2023-01-02T14:22:47.166Z,64.57
2023-01-02T14:24:16.112Z,64.63
2023-01-02T14:25:13.983Z,64.63
2023-01-02T14:26:25.525Z,64.68
2023-01-02T14:27:33.730Z,64.68
2023-01-02T14:28:39.469Z,64.69
2023-01-02T14:29:52.836Z,64.75
2023-01-02T14:30:57.970Z,64.75
2023-01-02T14:32:16.351Z,64.87
2023-01-02T14:33:31.127Z,64.79
2023-01-02T14:34:42.105Z,64.92
2023-01-02T14:35:53.973Z,65.05
2023-01-02T14:37:00.367Z,65.06
2023-01-02T14:38:25.712Z,65.15
2023-01-02T14:39:36.721Z,65.22
2023-01-02T14:40:42.125Z,65.22
2023-01-02T14:42:07.066Z,65.19
2023-01-02T14:43:31.823Z,65.25
2023-01-02T14:44:41.393Z,65.28
2023-01-02T14:45:51.247Z,65.31
2023-01-02T14:46:55.662Z,65.43
2023-01-02T14:48:11.078Z,65.62
2023-01-02T14:49:30.279Z,65.58
2023-01-02T14:50:35.954Z,65.62
2023-01-02T14:51:43.555Z,65.62
2023-01-02T14:52:52.894Z,65.61
2023-01-02T14:54:00.654Z,65.65
2023-01-02T14:55:20.716Z,65.63
2023-01-02T14:56:30.861Z,65.64